sensor_id;sensor_type;location;lat;lon;timestamp;pressure;altitude;pressure_sealevel;temperature
74539;BMP180;66042;51.090;-115.340;2023-04-06T00:00:42;86262.20;;;29.28
74539;BMP180;66042;51.090;-115.340;2023-04-06T00:03:09;86272.80;;;27.18
74539;BMP180;66042;51.090;-115.340;2023-04-06T00:05:36;86260.60;;;25.78
74539;BMP180;66042;51.090;-115.340;2023-04-06T00:08:03;86269.60;;;24.14
74539;BMP180;66042;51.090;-115.340;2023-04-06T00:10:31;86251.20;;;22.28
74539;BMP180;66042;51.090;-115.340;2023-04-06T00:12:59;86260.80;;;22.16
74539;BMP180;66042;51.090;-115.340;2023-04-06T00:15:27;86265.20;;;20.88
74539;BMP180;66042;51.090;-115.340;2023-04-06T00:17:55;86257.80;;;19.92
74539;BMP180;66042;51.090;-115.340;2023-04-06T00:20:23;86258.80;;;19.30
74539;BMP180;66042;51.090;-115.340;2023-04-06T00:22:50;86243.20;;;19.30
74539;BMP180;66042;51.090;-115.340;2023-04-06T00:25:18;86244.60;;;19.04
74539;BMP180;66042;51.090;-115.340;2023-04-06T00:27:45;86246.80;;;18.70
74539;BMP180;66042;51.090;-115.340;2023-04-06T00:30:12;86255.80;;;18.52
74539;BMP180;66042;51.090;-115.340;2023-04-06T00:32:39;86248.00;;;17.78
74539;BMP180;66042;51.090;-115.340;2023-04-06T00:35:07;86253.20;;;17.00
74539;BMP180;66042;51.090;-115.340;2023-04-06T00:37:34;86245.80;;;16.40
74539;BMP180;66042;51.090;-115.340;2023-04-06T00:40:02;86251.60;;;15.80
74539;BMP180;66042;51.090;-115.340;2023-04-06T00:42:29;86245.60;;;15.04
74539;BMP180;66042;51.090;-115.340;2023-04-06T00:45:01;86249.80;;;14.44
74539;BMP180;66042;51.090;-115.340;2023-04-06T00:47:28;86247.00;;;13.98
74539;BMP180;66042;51.090;-115.340;2023-04-06T00:49:56;86250.80;;;13.50
74539;BMP180;66042;51.090;-115.340;2023-04-06T00:52:23;86247.60;;;13.14
74539;BMP180;66042;51.090;-115.340;2023-04-06T00:54:51;86256.60;;;12.70
74539;BMP180;66042;51.090;-115.340;2023-04-06T00:57:19;86257.40;;;12.12
74539;BMP180;66042;51.090;-115.340;2023-04-06T00:59:46;86253.40;;;11.82
74539;BMP180;66042;51.090;-115.340;2023-04-06T01:02:13;86250.80;;;11.54
74539;BMP180;66042;51.090;-115.340;2023-04-06T01:04:42;86243.20;;;11.18
74539;BMP180;66042;51.090;-115.340;2023-04-06T01:07:09;86244.80;;;10.96
74539;BMP180;66042;51.090;-115.340;2023-04-06T01:09:36;86242.60;;;10.68
74539;BMP180;66042;51.090;-115.340;2023-04-06T01:12:03;86251.00;;;10.26
74539;BMP180;66042;51.090;-115.340;2023-04-06T01:14:30;86249.20;;;9.72
74539;BMP180;66042;51.090;-115.340;2023-04-06T01:17:00;86249.60;;;9.34
74539;BMP180;66042;51.090;-115.340;2023-04-06T01:19:27;86241.00;;;9.10
74539;BMP180;66042;51.090;-115.340;2023-04-06T01:21:54;86234.80;;;8.80
74539;BMP180;66042;51.090;-115.340;2023-04-06T01:24:21;86238.00;;;8.50
74539;BMP180;66042;51.090;-115.340;2023-04-06T01:26:48;86244.40;;;8.20
74539;BMP180;66042;51.090;-115.340;2023-04-06T01:29:16;86241.20;;;8.00
74539;BMP180;66042;51.090;-115.340;2023-04-06T01:31:42;86238.00;;;7.90
74539;BMP180;66042;51.090;-115.340;2023-04-06T01:34:10;86232.00;;;7.60
74539;BMP180;66042;51.090;-115.340;2023-04-06T01:36:37;86241.80;;;7.30
74539;BMP180;66042;51.090;-115.340;2023-04-06T01:39:04;86238.60;;;7.00
74539;BMP180;66042;51.090;-115.340;2023-04-06T01:41:31;86237.60;;;6.80
74539;BMP180;66042;51.090;-115.340;2023-04-06T01:43:58;86229.40;;;6.70
74539;BMP180;66042;51.090;-115.340;2023-04-06T01:46:25;86227.60;;;6.62
74539;BMP180;66042;51.090;-115.340;2023-04-06T01:48:52;86236.00;;;6.42
74539;BMP180;66042;51.090;-115.340;2023-04-06T01:51:19;86230.80;;;6.28
74539;BMP180;66042;51.090;-115.340;2023-04-06T01:53:46;86220.60;;;6.20
74539;BMP180;66042;51.090;-115.340;2023-04-06T01:56:14;86219.60;;;6.10
74539;BMP180;66042;51.090;-115.340;2023-04-06T01:58:42;86220.80;;;5.90
74539;BMP180;66042;51.090;-115.340;2023-04-06T02:01:09;86215.40;;;5.80
74539;BMP180;66042;51.090;-115.340;2023-04-06T02:03:36;86225.00;;;5.54
74539;BMP180;66042;51.090;-115.340;2023-04-06T02:06:03;86220.60;;;5.38
74539;BMP180;66042;51.090;-115.340;2023-04-06T02:08:31;86215.20;;;5.30
74539;BMP180;66042;51.090;-115.340;2023-04-06T02:10:58;86214.20;;;5.20
74539;BMP180;66042;51.090;-115.340;2023-04-06T02:13:25;86218.20;;;5.10
74539;BMP180;66042;51.090;-115.340;2023-04-06T02:15:52;86212.40;;;4.90
74539;BMP180;66042;51.090;-115.340;2023-04-06T02:18:19;86213.60;;;4.80
74539;BMP180;66042;51.090;-115.340;2023-04-06T02:20:46;86209.20;;;4.80
74539;BMP180;66042;51.090;-115.340;2023-04-06T02:23:13;86206.00;;;4.70
74539;BMP180;66042;51.090;-115.340;2023-04-06T02:25:41;86205.00;;;4.50
74539;BMP180;66042;51.090;-115.340;2023-04-06T02:28:08;86208.40;;;4.40
74539;BMP180;66042;51.090;-115.340;2023-04-06T02:30:36;86211.20;;;4.20
74539;BMP180;66042;51.090;-115.340;2023-04-06T02:33:03;86209.60;;;4.10
74539;BMP180;66042;51.090;-115.340;2023-04-06T02:35:30;86208.40;;;4.10
74539;BMP180;66042;51.090;-115.340;2023-04-06T02:37:58;86207.40;;;4.10
74539;BMP180;66042;51.090;-115.340;2023-04-06T02:40:25;86209.00;;;4.00
74539;BMP180;66042;51.090;-115.340;2023-04-06T02:42:52;86210.00;;;3.82
74539;BMP180;66042;51.090;-115.340;2023-04-06T02:45:19;86211.60;;;3.80
74539;BMP180;66042;51.090;-115.340;2023-04-06T02:47:47;86216.40;;;3.68
74539;BMP180;66042;51.090;-115.340;2023-04-06T02:50:14;86209.20;;;3.50
74539;BMP180;66042;51.090;-115.340;2023-04-06T02:52:41;86215.40;;;3.30
74539;BMP180;66042;51.090;-115.340;2023-04-06T02:55:09;86213.00;;;3.22
74539;BMP180;66042;51.090;-115.340;2023-04-06T02:57:36;86208.00;;;3.10
74539;BMP180;66042;51.090;-115.340;2023-04-06T03:00:03;86207.60;;;3.00
74539;BMP180;66042;51.090;-115.340;2023-04-06T03:02:31;86217.00;;;3.00
74539;BMP180;66042;51.090;-115.340;2023-04-06T03:04:58;86211.80;;;2.90
74539;BMP180;66042;51.090;-115.340;2023-04-06T03:07:25;86215.40;;;2.90
74539;BMP180;66042;51.090;-115.340;2023-04-06T03:09:52;86210.60;;;2.80
74539;BMP180;66042;51.090;-115.340;2023-04-06T03:12:20;86212.00;;;2.84
74539;BMP180;66042;51.090;-115.340;2023-04-06T03:14:47;86209.00;;;2.80
74539;BMP180;66042;51.090;-115.340;2023-04-06T03:17:14;86207.60;;;2.70
74539;BMP180;66042;51.090;-115.340;2023-04-06T03:19:42;86217.40;;;2.70
74539;BMP180;66042;51.090;-115.340;2023-04-06T03:22:09;86214.60;;;2.60
74539;BMP180;66042;51.090;-115.340;2023-04-06T03:24:36;86220.00;;;2.60
74539;BMP180;66042;51.090;-115.340;2023-04-06T03:27:03;86220.40;;;2.54
74539;BMP180;66042;51.090;-115.340;2023-04-06T03:29:30;86219.80;;;2.50
74539;BMP180;66042;51.090;-115.340;2023-04-06T03:31:57;86222.60;;;2.44
74539;BMP180;66042;51.090;-115.340;2023-04-06T03:34:25;86222.00;;;2.40
74539;BMP180;66042;51.090;-115.340;2023-04-06T03:36:51;86223.60;;;2.36
74539;BMP180;66042;51.090;-115.340;2023-04-06T03:39:19;86222.40;;;2.30
74539;BMP180;66042;51.090;-115.340;2023-04-06T03:41:46;86223.60;;;2.20
74539;BMP180;66042;51.090;-115.340;2023-04-06T03:44:13;86229.40;;;2.10
74539;BMP180;66042;51.090;-115.340;2023-04-06T03:46:40;86223.80;;;2.00
74539;BMP180;66042;51.090;-115.340;2023-04-06T03:49:07;86222.60;;;1.90
74539;BMP180;66042;51.090;-115.340;2023-04-06T03:51:35;86231.40;;;1.90
74539;BMP180;66042;51.090;-115.340;2023-04-06T03:54:03;86237.00;;;1.88
74539;BMP180;66042;51.090;-115.340;2023-04-06T03:56:30;86236.00;;;1.80
74539;BMP180;66042;51.090;-115.340;2023-04-06T03:58:57;86230.00;;;1.70
74539;BMP180;66042;51.090;-115.340;2023-04-06T04:01:24;86233.60;;;1.70
74539;BMP180;66042;51.090;-115.340;2023-04-06T04:03:52;86227.60;;;1.60
74539;BMP180;66042;51.090;-115.340;2023-04-06T04:06:19;86230.80;;;1.60
74539;BMP180;66042;51.090;-115.340;2023-04-06T04:08:46;86235.80;;;1.50
74539;BMP180;66042;51.090;-115.340;2023-04-06T04:11:13;86232.00;;;1.50
74539;BMP180;66042;51.090;-115.340;2023-04-06T04:13:42;86228.00;;;1.40
74539;BMP180;66042;51.090;-115.340;2023-04-06T04:16:09;86226.20;;;1.40
74539;BMP180;66042;51.090;-115.340;2023-04-06T04:18:36;86231.80;;;1.40
74539;BMP180;66042;51.090;-115.340;2023-04-06T04:21:04;86239.20;;;1.30
74539;BMP180;66042;51.090;-115.340;2023-04-06T04:23:31;86240.00;;;1.30
74539;BMP180;66042;51.090;-115.340;2023-04-06T04:25:58;86232.60;;;1.30
74539;BMP180;66042;51.090;-115.340;2023-04-06T04:28:25;86228.20;;;1.30
74539;BMP180;66042;51.090;-115.340;2023-04-06T04:30:52;86232.00;;;1.30
74539;BMP180;66042;51.090;-115.340;2023-04-06T04:33:20;86230.60;;;1.26
74539;BMP180;66042;51.090;-115.340;2023-04-06T04:35:47;86227.80;;;1.20
74539;BMP180;66042;51.090;-115.340;2023-04-06T04:38:14;86230.80;;;1.20
74539;BMP180;66042;51.090;-115.340;2023-04-06T04:40:41;86225.80;;;1.20
74539;BMP180;66042;51.090;-115.340;2023-04-06T04:43:08;86223.20;;;1.20
74539;BMP180;66042;51.090;-115.340;2023-04-06T04:45:36;86224.20;;;1.12
74539;BMP180;66042;51.090;-115.340;2023-04-06T04:48:03;86224.00;;;1.10
74539;BMP180;66042;51.090;-115.340;2023-04-06T04:50:32;86225.80;;;1.10
74539;BMP180;66042;51.090;-115.340;2023-04-06T04:52:59;86222.00;;;1.10
74539;BMP180;66042;51.090;-115.340;2023-04-06T04:55:27;86221.20;;;1.10
74539;BMP180;66042;51.090;-115.340;2023-04-06T04:57:54;86222.40;;;1.00
74539;BMP180;66042;51.090;-115.340;2023-04-06T05:00:21;86212.80;;;1.00
74539;BMP180;66042;51.090;-115.340;2023-04-06T05:02:48;86213.20;;;1.00
74539;BMP180;66042;51.090;-115.340;2023-04-06T05:05:16;86210.00;;;0.98
74539;BMP180;66042;51.090;-115.340;2023-04-06T05:07:43;86213.80;;;0.90
74539;BMP180;66042;51.090;-115.340;2023-04-06T05:10:10;86217.40;;;0.90
74539;BMP180;66042;51.090;-115.340;2023-04-06T05:12:38;86217.00;;;0.90
74539;BMP180;66042;51.090;-115.340;2023-04-06T05:15:05;86216.40;;;0.80
74539;BMP180;66042;51.090;-115.340;2023-04-06T05:17:33;86218.40;;;0.80
74539;BMP180;66042;51.090;-115.340;2023-04-06T05:20:00;86216.00;;;0.70
74539;BMP180;66042;51.090;-115.340;2023-04-06T05:22:27;86220.60;;;0.70
74539;BMP180;66042;51.090;-115.340;2023-04-06T05:24:55;86225.00;;;0.70
74539;BMP180;66042;51.090;-115.340;2023-04-06T05:27:22;86227.20;;;0.70
74539;BMP180;66042;51.090;-115.340;2023-04-06T05:29:49;86222.80;;;0.70
74539;BMP180;66042;51.090;-115.340;2023-04-06T05:32:17;86230.20;;;0.70
74539;BMP180;66042;51.090;-115.340;2023-04-06T05:34:49;86229.40;;;0.70
74539;BMP180;66042;51.090;-115.340;2023-04-06T05:37:16;86229.40;;;0.70
74539;BMP180;66042;51.090;-115.340;2023-04-06T05:39:44;86226.80;;;0.70
74539;BMP180;66042;51.090;-115.340;2023-04-06T05:42:11;86231.40;;;0.70
74539;BMP180;66042;51.090;-115.340;2023-04-06T05:44:38;86234.00;;;0.70
74539;BMP180;66042;51.090;-115.340;2023-04-06T05:47:07;86227.40;;;0.70
74539;BMP180;66042;51.090;-115.340;2023-04-06T05:49:34;86229.00;;;0.70
74539;BMP180;66042;51.090;-115.340;2023-04-06T05:52:02;86226.00;;;0.70
74539;BMP180;66042;51.090;-115.340;2023-04-06T05:54:28;86222.60;;;0.74
74539;BMP180;66042;51.090;-115.340;2023-04-06T05:56:56;86225.60;;;0.70
74539;BMP180;66042;51.090;-115.340;2023-04-06T05:59:23;86229.20;;;0.70
74539;BMP180;66042;51.090;-115.340;2023-04-06T06:01:50;86229.60;;;0.70
74539;BMP180;66042;51.090;-115.340;2023-04-06T06:04:18;86232.00;;;0.70
74539;BMP180;66042;51.090;-115.340;2023-04-06T06:06:45;86235.80;;;0.70
74539;BMP180;66042;51.090;-115.340;2023-04-06T06:09:12;86229.40;;;0.70
74539;BMP180;66042;51.090;-115.340;2023-04-06T06:11:39;86235.40;;;0.70
74539;BMP180;66042;51.090;-115.340;2023-04-06T06:14:07;86232.80;;;0.70
74539;BMP180;66042;51.090;-115.340;2023-04-06T06:16:34;86234.40;;;0.66
74539;BMP180;66042;51.090;-115.340;2023-04-06T06:19:02;86232.40;;;0.60
74539;BMP180;66042;51.090;-115.340;2023-04-06T06:21:29;86227.40;;;0.60
74539;BMP180;66042;51.090;-115.340;2023-04-06T06:23:57;86231.40;;;0.54
74539;BMP180;66042;51.090;-115.340;2023-04-06T06:26:24;86228.60;;;0.50
74539;BMP180;66042;51.090;-115.340;2023-04-06T06:28:51;86235.60;;;0.50
74539;BMP180;66042;51.090;-115.340;2023-04-06T06:31:18;86235.60;;;0.50
74539;BMP180;66042;51.090;-115.340;2023-04-06T06:33:49;86240.80;;;0.50
74539;BMP180;66042;51.090;-115.340;2023-04-06T06:36:20;86233.20;;;0.50
74539;BMP180;66042;51.090;-115.340;2023-04-06T06:38:48;86233.00;;;0.50
74539;BMP180;66042;51.090;-115.340;2023-04-06T06:41:16;86234.80;;;0.50
74539;BMP180;66042;51.090;-115.340;2023-04-06T06:43:43;86229.80;;;0.50
74539;BMP180;66042;51.090;-115.340;2023-04-06T06:46:11;86235.60;;;0.50
74539;BMP180;66042;51.090;-115.340;2023-04-06T06:48:38;86232.20;;;0.50
74539;BMP180;66042;51.090;-115.340;2023-04-06T06:51:06;86227.80;;;0.50
74539;BMP180;66042;51.090;-115.340;2023-04-06T06:53:33;86225.00;;;0.50
74539;BMP180;66042;51.090;-115.340;2023-04-06T06:56:00;86229.00;;;0.50
74539;BMP180;66042;51.090;-115.340;2023-04-06T06:58:27;86233.60;;;0.50
74539;BMP180;66042;51.090;-115.340;2023-04-06T07:00:58;86231.60;;;0.58
74539;BMP180;66042;51.090;-115.340;2023-04-06T07:03:26;86234.60;;;0.60
74539;BMP180;66042;51.090;-115.340;2023-04-06T07:05:53;86239.20;;;0.60
74539;BMP180;66042;51.090;-115.340;2023-04-06T07:08:22;86237.20;;;0.60
74539;BMP180;66042;51.090;-115.340;2023-04-06T07:10:52;86235.80;;;0.60
74539;BMP180;66042;51.090;-115.340;2023-04-06T07:13:20;86244.80;;;0.60
74539;BMP180;66042;51.090;-115.340;2023-04-06T07:15:50;86232.20;;;0.60
74539;BMP180;66042;51.090;-115.340;2023-04-06T07:18:19;86230.20;;;0.60
74539;BMP180;66042;51.090;-115.340;2023-04-06T07:20:46;86237.60;;;0.60
74539;BMP180;66042;51.090;-115.340;2023-04-06T07:23:14;86242.00;;;0.60
74539;BMP180;66042;51.090;-115.340;2023-04-06T07:25:41;86240.00;;;0.60
74539;BMP180;66042;51.090;-115.340;2023-04-06T07:28:09;86239.20;;;0.60
74539;BMP180;66042;51.090;-115.340;2023-04-06T07:30:38;86239.40;;;0.60
74539;BMP180;66042;51.090;-115.340;2023-04-06T07:33:05;86239.20;;;0.58
74539;BMP180;66042;51.090;-115.340;2023-04-06T07:35:32;86242.80;;;0.52
74539;BMP180;66042;51.090;-115.340;2023-04-06T07:38:00;86240.40;;;0.50
74539;BMP180;66042;51.090;-115.340;2023-04-06T07:40:27;86237.60;;;0.50
74539;BMP180;66042;51.090;-115.340;2023-04-06T07:42:54;86246.00;;;0.50
74539;BMP180;66042;51.090;-115.340;2023-04-06T07:45:22;86250.40;;;0.50
74539;BMP180;66042;51.090;-115.340;2023-04-06T07:47:49;86251.40;;;0.50
74539;BMP180;66042;51.090;-115.340;2023-04-06T07:50:16;86251.00;;;0.50
74539;BMP180;66042;51.090;-115.340;2023-04-06T07:52:44;86259.40;;;0.40
74539;BMP180;66042;51.090;-115.340;2023-04-06T07:55:11;86265.60;;;0.40
74539;BMP180;66042;51.090;-115.340;2023-04-06T07:57:38;86261.60;;;0.40
74539;BMP180;66042;51.090;-115.340;2023-04-06T08:00:06;86253.00;;;0.30
74539;BMP180;66042;51.090;-115.340;2023-04-06T08:02:36;86249.60;;;0.30
74539;BMP180;66042;51.090;-115.340;2023-04-06T08:05:03;86255.80;;;0.30
74539;BMP180;66042;51.090;-115.340;2023-04-06T08:07:30;86258.20;;;0.30
74539;BMP180;66042;51.090;-115.340;2023-04-06T08:09:57;86259.40;;;0.28
74539;BMP180;66042;51.090;-115.340;2023-04-06T08:12:24;86254.80;;;0.20
74539;BMP180;66042;51.090;-115.340;2023-04-06T08:14:51;86245.20;;;0.20
74539;BMP180;66042;51.090;-115.340;2023-04-06T08:17:18;86250.80;;;0.20
74539;BMP180;66042;51.090;-115.340;2023-04-06T08:19:45;86248.80;;;0.16
74539;BMP180;66042;51.090;-115.340;2023-04-06T08:22:12;86247.00;;;0.12
74539;BMP180;66042;51.090;-115.340;2023-04-06T08:24:40;86249.60;;;0.10
74539;BMP180;66042;51.090;-115.340;2023-04-06T08:27:07;86244.80;;;0.10
74539;BMP180;66042;51.090;-115.340;2023-04-06T08:29:34;86244.00;;;0.10
74539;BMP180;66042;51.090;-115.340;2023-04-06T08:32:01;86247.60;;;0.10
74539;BMP180;66042;51.090;-115.340;2023-04-06T08:34:35;86246.40;;;0.10
74539;BMP180;66042;51.090;-115.340;2023-04-06T08:37:01;86244.00;;;0.10
74539;BMP180;66042;51.090;-115.340;2023-04-06T08:39:29;86249.40;;;0.02
74539;BMP180;66042;51.090;-115.340;2023-04-06T08:41:57;86245.80;;;0.00
74539;BMP180;66042;51.090;-115.340;2023-04-06T08:44:26;86252.80;;;0.00
74539;BMP180;66042;51.090;-115.340;2023-04-06T08:46:54;86253.20;;;0.00
74539;BMP180;66042;51.090;-115.340;2023-04-06T08:49:21;86244.80;;;0.00
74539;BMP180;66042;51.090;-115.340;2023-04-06T08:51:49;86242.20;;;0.00
74539;BMP180;66042;51.090;-115.340;2023-04-06T08:54:17;86242.60;;;0.00
74539;BMP180;66042;51.090;-115.340;2023-04-06T08:56:44;86239.00;;;0.00
74539;BMP180;66042;51.090;-115.340;2023-04-06T08:59:13;86241.20;;;0.00
74539;BMP180;66042;51.090;-115.340;2023-04-06T09:01:40;86244.60;;;0.00
74539;BMP180;66042;51.090;-115.340;2023-04-06T09:04:10;86242.20;;;0.00
74539;BMP180;66042;51.090;-115.340;2023-04-06T09:06:38;86242.00;;;0.00
74539;BMP180;66042;51.090;-115.340;2023-04-06T09:09:06;86243.80;;;0.00
74539;BMP180;66042;51.090;-115.340;2023-04-06T09:11:50;86244.80;;;0.00
74539;BMP180;66042;51.090;-115.340;2023-04-06T09:14:37;86246.60;;;0.00
74539;BMP180;66042;51.090;-115.340;2023-04-06T09:17:04;86250.20;;;0.00
74539;BMP180;66042;51.090;-115.340;2023-04-06T09:19:32;86250.00;;;0.00
74539;BMP180;66042;51.090;-115.340;2023-04-06T09:22:04;86252.60;;;-0.08
74539;BMP180;66042;51.090;-115.340;2023-04-06T09:24:47;86256.60;;;-0.10
74539;BMP180;66042;51.090;-115.340;2023-04-06T09:27:15;86256.20;;;-0.10
74539;BMP180;66042;51.090;-115.340;2023-04-06T09:29:44;86260.00;;;-0.10
74539;BMP180;66042;51.090;-115.340;2023-04-06T09:32:12;86260.40;;;-0.10
74539;BMP180;66042;51.090;-115.340;2023-04-06T09:34:43;86264.00;;;-0.10
74539;BMP180;66042;51.090;-115.340;2023-04-06T09:37:19;86263.40;;;-0.10
74539;BMP180;66042;51.090;-115.340;2023-04-06T09:39:46;86264.00;;;-0.10
74539;BMP180;66042;51.090;-115.340;2023-04-06T09:42:26;86263.20;;;-0.10
74539;BMP180;66042;51.090;-115.340;2023-04-06T09:44:54;86260.40;;;-0.10
74539;BMP180;66042;51.090;-115.340;2023-04-06T09:47:21;86262.20;;;-0.10
74539;BMP180;66042;51.090;-115.340;2023-04-06T09:49:58;86259.20;;;-0.14
74539;BMP180;66042;51.090;-115.340;2023-04-06T09:52:32;86264.80;;;-0.18
74539;BMP180;66042;51.090;-115.340;2023-04-06T09:55:05;86262.80;;;-0.20
74539;BMP180;66042;51.090;-115.340;2023-04-06T09:58:06;86259.00;;;-0.20
74539;BMP180;66042;51.090;-115.340;2023-04-06T10:00:48;86261.00;;;-0.20
74539;BMP180;66042;51.090;-115.340;2023-04-06T10:03:50;86261.20;;;-0.30
74539;BMP180;66042;51.090;-115.340;2023-04-06T10:06:23;86264.60;;;-0.34
74539;BMP180;66042;51.090;-115.340;2023-04-06T10:08:54;86262.80;;;-0.36
74539;BMP180;66042;51.090;-115.340;2023-04-06T10:11:23;86267.60;;;-0.40
74539;BMP180;66042;51.090;-115.340;2023-04-06T10:13:50;86271.20;;;-0.40
74539;BMP180;66042;51.090;-115.340;2023-04-06T10:16:18;86265.20;;;-0.42
74539;BMP180;66042;51.090;-115.340;2023-04-06T10:18:56;86261.00;;;-0.50
74539;BMP180;66042;51.090;-115.340;2023-04-06T10:21:26;86257.00;;;-0.50
74539;BMP180;66042;51.090;-115.340;2023-04-06T10:24:01;86266.60;;;-0.50
74539;BMP180;66042;51.090;-115.340;2023-04-06T10:26:29;86263.00;;;-0.50
74539;BMP180;66042;51.090;-115.340;2023-04-06T10:29:04;86267.80;;;-0.60
74539;BMP180;66042;51.090;-115.340;2023-04-06T10:31:31;86267.00;;;-0.58
74539;BMP180;66042;51.090;-115.340;2023-04-06T10:34:02;86269.80;;;-0.54
74539;BMP180;66042;51.090;-115.340;2023-04-06T10:36:33;86262.20;;;-0.58
74539;BMP180;66042;51.090;-115.340;2023-04-06T10:39:05;86267.20;;;-0.60
74539;BMP180;66042;51.090;-115.340;2023-04-06T10:41:41;86269.00;;;-0.60
74539;BMP180;66042;51.090;-115.340;2023-04-06T10:44:17;86270.40;;;-0.68
74539;BMP180;66042;51.090;-115.340;2023-04-06T10:46:58;86271.20;;;-0.70
74539;BMP180;66042;51.090;-115.340;2023-04-06T10:49:28;86270.80;;;-0.64
74539;BMP180;66042;51.090;-115.340;2023-04-06T10:51:56;86269.60;;;-0.70
74539;BMP180;66042;51.090;-115.340;2023-04-06T10:54:26;86275.80;;;-0.70
74539;BMP180;66042;51.090;-115.340;2023-04-06T10:56:53;86275.20;;;-0.70
74539;BMP180;66042;51.090;-115.340;2023-04-06T10:59:21;86280.80;;;-0.70
74539;BMP180;66042;51.090;-115.340;2023-04-06T11:01:50;86273.60;;;-0.70
74539;BMP180;66042;51.090;-115.340;2023-04-06T11:04:19;86277.00;;;-0.70
74539;BMP180;66042;51.090;-115.340;2023-04-06T11:06:50;86273.80;;;-0.78
74539;BMP180;66042;51.090;-115.340;2023-04-06T11:09:29;86276.80;;;-0.72
74539;BMP180;66042;51.090;-115.340;2023-04-06T11:11:58;86280.40;;;-0.74
74539;BMP180;66042;51.090;-115.340;2023-04-06T11:14:25;86279.80;;;-0.80
74539;BMP180;66042;51.090;-115.340;2023-04-06T11:16:53;86278.20;;;-0.80
74539;BMP180;66042;51.090;-115.340;2023-04-06T11:19:20;86283.80;;;-0.80
74539;BMP180;66042;51.090;-115.340;2023-04-06T11:21:48;86285.40;;;-0.80
74539;BMP180;66042;51.090;-115.340;2023-04-06T11:24:24;86286.00;;;-0.82
74539;BMP180;66042;51.090;-115.340;2023-04-06T11:26:57;86285.60;;;-0.80
74539;BMP180;66042;51.090;-115.340;2023-04-06T11:29:30;86289.00;;;-0.82
74539;BMP180;66042;51.090;-115.340;2023-04-06T11:32:05;86299.00;;;-0.80
74539;BMP180;66042;51.090;-115.340;2023-04-06T11:34:40;86299.40;;;-0.90
74539;BMP180;66042;51.090;-115.340;2023-04-06T11:37:12;86290.60;;;-0.90
74539;BMP180;66042;51.090;-115.340;2023-04-06T11:39:51;86292.80;;;-1.00
74539;BMP180;66042;51.090;-115.340;2023-04-06T11:42:27;86292.60;;;-1.00
74539;BMP180;66042;51.090;-115.340;2023-04-06T11:45:00;86289.20;;;-1.00
74539;BMP180;66042;51.090;-115.340;2023-04-06T11:47:34;86292.60;;;-1.00
74539;BMP180;66042;51.090;-115.340;2023-04-06T11:50:13;86290.80;;;-1.00
74539;BMP180;66042;51.090;-115.340;2023-04-06T11:52:43;86297.00;;;-1.04
74539;BMP180;66042;51.090;-115.340;2023-04-06T11:57:41;86297.40;;;-1.20
74539;BMP180;66042;51.090;-115.340;2023-04-06T12:00:10;86299.60;;;-1.20
74539;BMP180;66042;51.090;-115.340;2023-04-06T12:02:38;86287.40;;;-1.22
74539;BMP180;66042;51.090;-115.340;2023-04-06T12:05:06;86290.00;;;-1.30
74539;BMP180;66042;51.090;-115.340;2023-04-06T12:07:34;86286.20;;;-1.30
74539;BMP180;66042;51.090;-115.340;2023-04-06T12:10:03;86289.40;;;-1.36
74539;BMP180;66042;51.090;-115.340;2023-04-06T12:12:30;86290.80;;;-1.40
74539;BMP180;66042;51.090;-115.340;2023-04-06T12:14:58;86289.80;;;-1.48
74539;BMP180;66042;51.090;-115.340;2023-04-06T12:17:26;86288.80;;;-1.56
74539;BMP180;66042;51.090;-115.340;2023-04-06T12:19:53;86294.20;;;-1.60
74539;BMP180;66042;51.090;-115.340;2023-04-06T12:22:20;86290.00;;;-1.70
74539;BMP180;66042;51.090;-115.340;2023-04-06T12:24:47;86291.60;;;-1.74
74539;BMP180;66042;51.090;-115.340;2023-04-06T12:27:14;86292.60;;;-1.78
74539;BMP180;66042;51.090;-115.340;2023-04-06T12:29:42;86293.40;;;-1.80
74539;BMP180;66042;51.090;-115.340;2023-04-06T12:32:09;86297.80;;;-1.80
74539;BMP180;66042;51.090;-115.340;2023-04-06T12:34:38;86299.40;;;-1.80
74539;BMP180;66042;51.090;-115.340;2023-04-06T12:37:06;86300.80;;;-1.90
74539;BMP180;66042;51.090;-115.340;2023-04-06T12:39:33;86302.20;;;-1.90
74539;BMP180;66042;51.090;-115.340;2023-04-06T12:42:01;86304.80;;;-1.90
74539;BMP180;66042;51.090;-115.340;2023-04-06T12:44:29;86305.00;;;-1.90
74539;BMP180;66042;51.090;-115.340;2023-04-06T12:46:56;86304.20;;;-1.96
74539;BMP180;66042;51.090;-115.340;2023-04-06T12:49:23;86302.40;;;-2.00
74539;BMP180;66042;51.090;-115.340;2023-04-06T12:51:50;86299.80;;;-2.00
74539;BMP180;66042;51.090;-115.340;2023-04-06T12:54:17;86300.80;;;-2.10
74539;BMP180;66042;51.090;-115.340;2023-04-06T12:56:44;86298.40;;;-2.14
74539;BMP180;66042;51.090;-115.340;2023-04-06T12:59:11;86301.60;;;-2.10
74539;BMP180;66042;51.090;-115.340;2023-04-06T13:01:38;86300.40;;;-2.14
74539;BMP180;66042;51.090;-115.340;2023-04-06T13:04:06;86301.80;;;-2.20
74539;BMP180;66042;51.090;-115.340;2023-04-06T13:06:33;86298.20;;;-2.20
74539;BMP180;66042;51.090;-115.340;2023-04-06T13:09:00;86301.20;;;-2.20
74539;BMP180;66042;51.090;-115.340;2023-04-06T13:11:27;86303.80;;;-2.22
74539;BMP180;66042;51.090;-115.340;2023-04-06T13:13:55;86300.40;;;-2.24
74539;BMP180;66042;51.090;-115.340;2023-04-06T13:16:22;86305.80;;;-2.28
74539;BMP180;66042;51.090;-115.340;2023-04-06T13:18:49;86305.20;;;-2.32
74539;BMP180;66042;51.090;-115.340;2023-04-06T13:21:16;86308.40;;;-2.30
74539;BMP180;66042;51.090;-115.340;2023-04-06T13:23:44;86312.40;;;-2.30
74539;BMP180;66042;51.090;-115.340;2023-04-06T13:26:11;86310.60;;;-2.34
74539;BMP180;66042;51.090;-115.340;2023-04-06T13:28:40;86314.00;;;-2.38
74539;BMP180;66042;51.090;-115.340;2023-04-06T13:31:07;86310.40;;;-2.40
74539;BMP180;66042;51.090;-115.340;2023-04-06T13:33:34;86313.20;;;-2.50
74539;BMP180;66042;51.090;-115.340;2023-04-06T13:36:02;86315.40;;;-2.46
74539;BMP180;66042;51.090;-115.340;2023-04-06T13:38:30;86316.60;;;-2.40
74539;BMP180;66042;51.090;-115.340;2023-04-06T13:40:57;86314.60;;;-2.40
74539;BMP180;66042;51.090;-115.340;2023-04-06T13:43:25;86319.40;;;-2.40
74539;BMP180;66042;51.090;-115.340;2023-04-06T13:45:55;86322.00;;;-2.40
74539;BMP180;66042;51.090;-115.340;2023-04-06T13:48:24;86323.40;;;-2.40